sensor_id;sensor_type;location;lat;lon;timestamp;P1;durP1;ratioP1;P2;durP2;ratioP2
11829;SDS011;5972;42.134;24.718;2023-07-08T00:01:59;8.40;;;6.80;;
11829;SDS011;5972;42.134;24.718;2023-07-08T00:04:25;7.05;;;6.32;;
11829;SDS011;5972;42.134;24.718;2023-07-08T00:06:52;7.65;;;6.78;;
11829;SDS011;5972;42.134;24.718;2023-07-08T00:09:19;7.45;;;6.75;;
11829;SDS011;5972;42.134;24.718;2023-07-08T00:11:47;7.22;;;6.63;;
11829;SDS011;5972;42.134;24.718;2023-07-08T00:14:14;10.65;;;7.05;;
11829;SDS011;5972;42.134;24.718;2023-07-08T00:16:41;7.28;;;6.68;;
11829;SDS011;5972;42.134;24.718;2023-07-08T00:19:08;7.50;;;6.70;;
11829;SDS011;5972;42.134;24.718;2023-07-08T00:21:35;7.65;;;6.95;;
11829;SDS011;5972;42.134;24.718;2023-07-08T00:24:03;7.70;;;6.90;;
11829;SDS011;5972;42.134;24.718;2023-07-08T00:26:30;8.73;;;7.07;;
11829;SDS011;5972;42.134;24.718;2023-07-08T00:28:58;7.53;;;6.70;;
11829;SDS011;5972;42.134;24.718;2023-07-08T00:31:25;10.48;;;6.88;;
11829;SDS011;5972;42.134;24.718;2023-07-08T00:33:53;8.85;;;6.65;;
11829;SDS011;5972;42.134;24.718;2023-07-08T00:36:22;8.45;;;7.03;;
11829;SDS011;5972;42.134;24.718;2023-07-08T00:38:50;9.20;;;6.72;;
11829;SDS011;5972;42.134;24.718;2023-07-08T00:41:18;10.32;;;7.15;;
11829;SDS011;5972;42.134;24.718;2023-07-08T00:43:49;7.72;;;6.93;;
11829;SDS011;5972;42.134;24.718;2023-07-08T00:46:21;8.02;;;7.22;;
11829;SDS011;5972;42.134;24.718;2023-07-08T00:49:00;8.30;;;6.82;;
11829;SDS011;5972;42.134;24.718;2023-07-08T00:51:36;9.23;;;6.53;;
11829;SDS011;5972;42.134;24.718;2023-07-08T00:54:04;7.30;;;6.18;;
11829;SDS011;5972;42.134;24.718;2023-07-08T00:56:31;7.50;;;6.57;;
11829;SDS011;5972;42.134;24.718;2023-07-08T00:59:02;6.70;;;6.10;;
11829;SDS011;5972;42.134;24.718;2023-07-08T01:01:35;7.07;;;6.45;;
11829;SDS011;5972;42.134;24.718;2023-07-08T01:04:04;6.88;;;6.35;;
11829;SDS011;5972;42.134;24.718;2023-07-08T01:06:35;8.15;;;6.53;;
11829;SDS011;5972;42.134;24.718;2023-07-08T01:09:06;8.43;;;5.32;;
11829;SDS011;5972;42.134;24.718;2023-07-08T01:11:34;9.52;;;5.70;;
11829;SDS011;5972;42.134;24.718;2023-07-08T01:14:06;6.68;;;5.82;;
11829;SDS011;5972;42.134;24.718;2023-07-08T01:16:37;8.00;;;6.60;;
11829;SDS011;5972;42.134;24.718;2023-07-08T01:19:04;7.85;;;6.50;;
11829;SDS011;5972;42.134;24.718;2023-07-08T01:21:38;7.90;;;7.10;;
11829;SDS011;5972;42.134;24.718;2023-07-08T01:24:07;9.63;;;6.47;;
11829;SDS011;5972;42.134;24.718;2023-07-08T01:26:37;11.60;;;7.25;;
11829;SDS011;5972;42.134;24.718;2023-07-08T01:29:06;7.72;;;6.15;;
11829;SDS011;5972;42.134;24.718;2023-07-08T01:31:33;7.10;;;6.40;;
11829;SDS011;5972;42.134;24.718;2023-07-08T01:34:01;8.63;;;6.75;;
11829;SDS011;5972;42.134;24.718;2023-07-08T01:36:29;7.63;;;6.85;;
11829;SDS011;5972;42.134;24.718;2023-07-08T01:39:01;7.57;;;6.88;;
11829;SDS011;5972;42.134;24.718;2023-07-08T01:41:30;9.50;;;6.85;;
11829;SDS011;5972;42.134;24.718;2023-07-08T01:43:57;7.90;;;7.10;;
11829;SDS011;5972;42.134;24.718;2023-07-08T01:46:24;7.60;;;6.88;;
11829;SDS011;5972;42.134;24.718;2023-07-08T01:48:55;7.43;;;6.63;;
11829;SDS011;5972;42.134;24.718;2023-07-08T01:51:24;9.63;;;6.40;;
11829;SDS011;5972;42.134;24.718;2023-07-08T01:53:52;7.65;;;6.32;;
11829;SDS011;5972;42.134;24.718;2023-07-08T01:56:19;7.18;;;6.47;;
11829;SDS011;5972;42.134;24.718;2023-07-08T01:58:48;7.75;;;6.95;;
11829;SDS011;5972;42.134;24.718;2023-07-08T02:01:14;7.78;;;6.72;;
11829;SDS011;5972;42.134;24.718;2023-07-08T02:03:42;10.35;;;6.72;;
11829;SDS011;5972;42.134;24.718;2023-07-08T02:06:11;7.22;;;6.53;;
11829;SDS011;5972;42.134;24.718;2023-07-08T02:08:38;8.60;;;6.97;;
11829;SDS011;5972;42.134;24.718;2023-07-08T02:11:05;11.20;;;6.55;;
11829;SDS011;5972;42.134;24.718;2023-07-08T02:13:32;8.02;;;6.85;;
11829;SDS011;5972;42.134;24.718;2023-07-08T02:16:00;9.85;;;6.95;;
11829;SDS011;5972;42.134;24.718;2023-07-08T02:18:27;7.80;;;7.00;;
11829;SDS011;5972;42.134;24.718;2023-07-08T02:20:57;9.00;;;7.38;;
11829;SDS011;5972;42.134;24.718;2023-07-08T02:23:24;10.27;;;7.00;;
11829;SDS011;5972;42.134;24.718;2023-07-08T02:25:51;9.63;;;7.97;;
11829;SDS011;5972;42.134;24.718;2023-07-08T02:28:18;8.45;;;7.65;;
11829;SDS011;5972;42.134;24.718;2023-07-08T02:30:45;9.27;;;7.85;;
11829;SDS011;5972;42.134;24.718;2023-07-08T02:33:13;10.32;;;8.30;;
11829;SDS011;5972;42.134;24.718;2023-07-08T02:35:42;10.77;;;8.27;;
11829;SDS011;5972;42.134;24.718;2023-07-08T02:38:10;10.40;;;8.00;;
11829;SDS011;5972;42.134;24.718;2023-07-08T02:40:36;9.60;;;8.50;;
11829;SDS011;5972;42.134;24.718;2023-07-08T02:43:03;10.57;;;8.65;;
11829;SDS011;5972;42.134;24.718;2023-07-08T02:45:30;9.77;;;8.77;;
11829;SDS011;5972;42.134;24.718;2023-07-08T02:47:57;10.48;;;9.40;;
11829;SDS011;5972;42.134;24.718;2023-07-08T02:50:25;11.80;;;9.48;;
11829;SDS011;5972;42.134;24.718;2023-07-08T02:52:52;10.52;;;9.55;;
11829;SDS011;5972;42.134;24.718;2023-07-08T02:55:19;10.65;;;9.60;;
11829;SDS011;5972;42.134;24.718;2023-07-08T02:57:46;11.60;;;10.00;;
11829;SDS011;5972;42.134;24.718;2023-07-08T03:00:13;12.73;;;10.13;;
11829;SDS011;5972;42.134;24.718;2023-07-08T03:02:40;11.20;;;10.05;;
11829;SDS011;5972;42.134;24.718;2023-07-08T03:05:07;11.15;;;9.98;;
11829;SDS011;5972;42.134;24.718;2023-07-08T03:07:36;11.27;;;10.27;;
11829;SDS011;5972;42.134;24.718;2023-07-08T03:10:03;14.27;;;9.80;;
11829;SDS011;5972;42.134;24.718;2023-07-08T03:12:30;11.38;;;10.20;;
11829;SDS011;5972;42.134;24.718;2023-07-08T03:14:57;11.55;;;10.50;;
11829;SDS011;5972;42.134;24.718;2023-07-08T03:17:24;11.70;;;9.98;;
11829;SDS011;5972;42.134;24.718;2023-07-08T03:19:50;12.35;;;10.30;;
11829;SDS011;5972;42.134;24.718;2023-07-08T03:22:17;13.48;;;10.93;;
11829;SDS011;5972;42.134;24.718;2023-07-08T03:24:45;13.50;;;10.43;;
11829;SDS011;5972;42.134;24.718;2023-07-08T03:27:12;11.48;;;10.27;;
11829;SDS011;5972;42.134;24.718;2023-07-08T03:29:40;11.63;;;10.63;;
11829;SDS011;5972;42.134;24.718;2023-07-08T03:32:07;12.57;;;11.25;;
11829;SDS011;5972;42.134;24.718;2023-07-08T03:34:36;11.88;;;10.88;;
11829;SDS011;5972;42.134;24.718;2023-07-08T03:37:03;13.45;;;12.05;;
11829;SDS011;5972;42.134;24.718;2023-07-08T03:39:30;12.73;;;11.63;;
11829;SDS011;5972;42.134;24.718;2023-07-08T03:41:59;14.48;;;12.30;;
11829;SDS011;5972;42.134;24.718;2023-07-08T03:44:25;12.70;;;11.32;;
11829;SDS011;5972;42.134;24.718;2023-07-08T03:46:52;12.85;;;11.65;;
11829;SDS011;5972;42.134;24.718;2023-07-08T03:49:20;12.25;;;11.05;;
11829;SDS011;5972;42.134;24.718;2023-07-08T03:51:49;14.02;;;11.57;;
11829;SDS011;5972;42.134;24.718;2023-07-08T03:54:19;12.50;;;11.40;;
11829;SDS011;5972;42.134;24.718;2023-07-08T03:56:46;12.63;;;11.43;;
11829;SDS011;5972;42.134;24.718;2023-07-08T03:59:15;13.65;;;11.57;;
11829;SDS011;5972;42.134;24.718;2023-07-08T04:01:41;13.18;;;11.93;;
11829;SDS011;5972;42.134;24.718;2023-07-08T04:04:08;12.52;;;11.23;;
11829;SDS011;5972;42.134;24.718;2023-07-08T04:06:37;12.20;;;11.00;;
11829;SDS011;5972;42.134;24.718;2023-07-08T04:09:04;12.00;;;10.68;;
11829;SDS011;5972;42.134;24.718;2023-07-08T04:11:32;11.40;;;10.40;;
11829;SDS011;5972;42.134;24.718;2023-07-08T04:13:59;12.45;;;10.77;;
11829;SDS011;5972;42.134;24.718;2023-07-08T04:16:28;15.63;;;10.15;;
11829;SDS011;5972;42.134;24.718;2023-07-08T04:18:58;11.82;;;10.63;;
11829;SDS011;5972;42.134;24.718;2023-07-08T04:21:25;11.68;;;10.30;;
11829;SDS011;5972;42.134;24.718;2023-07-08T04:23:52;11.93;;;10.90;;
11829;SDS011;5972;42.134;24.718;2023-07-08T04:26:18;11.63;;;10.52;;
11829;SDS011;5972;42.134;24.718;2023-07-08T04:28:45;11.27;;;10.15;;
11829;SDS011;5972;42.134;24.718;2023-07-08T04:31:12;12.73;;;10.57;;
11829;SDS011;5972;42.134;24.718;2023-07-08T04:33:40;12.40;;;9.93;;
11829;SDS011;5972;42.134;24.718;2023-07-08T04:36:09;12.38;;;10.25;;
11829;SDS011;5972;42.134;24.718;2023-07-08T04:38:39;11.40;;;10.23;;
11829;SDS011;5972;42.134;24.718;2023-07-08T04:41:07;11.10;;;10.02;;
11829;SDS011;5972;42.134;24.718;2023-07-08T04:43:33;12.90;;;10.68;;
11829;SDS011;5972;42.134;24.718;2023-07-08T04:46:00;11.63;;;10.45;;
11829;SDS011;5972;42.134;24.718;2023-07-08T04:48:27;10.93;;;9.80;;
11829;SDS011;5972;42.134;24.718;2023-07-08T04:50:55;10.38;;;9.30;;
11829;SDS011;5972;42.134;24.718;2023-07-08T04:53:22;11.73;;;9.25;;
11829;SDS011;5972;42.134;24.718;2023-07-08T04:55:51;10.77;;;9.63;;
11829;SDS011;5972;42.134;24.718;2023-07-08T04:58:20;11.02;;;10.02;;
11829;SDS011;5972;42.134;24.718;2023-07-08T05:00:47;15.13;;;10.50;;
11829;SDS011;5972;42.134;24.718;2023-07-08T05:03:14;10.35;;;9.15;;
11829;SDS011;5972;42.134;24.718;2023-07-08T05:05:41;10.75;;;9.55;;
11829;SDS011;5972;42.134;24.718;2023-07-08T05:08:09;17.65;;;9.32;;
11829;SDS011;5972;42.134;24.718;2023-07-08T05:10:36;13.40;;;9.15;;
11829;SDS011;5972;42.134;24.718;2023-07-08T05:13:03;12.00;;;9.00;;
11829;SDS011;5972;42.134;24.718;2023-07-08T05:15:29;9.48;;;8.00;;
11829;SDS011;5972;42.134;24.718;2023-07-08T05:17:56;10.05;;;7.97;;
11829;SDS011;5972;42.134;24.718;2023-07-08T05:20:23;9.05;;;8.25;;
11829;SDS011;5972;42.134;24.718;2023-07-08T05:22:50;9.45;;;8.48;;
11829;SDS011;5972;42.134;24.718;2023-07-08T05:25:18;9.45;;;8.48;;
11829;SDS011;5972;42.134;24.718;2023-07-08T05:27:45;9.43;;;8.57;;
11829;SDS011;5972;42.134;24.718;2023-07-08T05:30:13;13.23;;;9.15;;
11829;SDS011;5972;42.134;24.718;2023-07-08T05:32:41;9.32;;;8.43;;
11829;SDS011;5972;42.134;24.718;2023-07-08T05:35:08;10.20;;;8.57;;
11829;SDS011;5972;42.134;24.718;2023-07-08T05:37:35;10.80;;;8.15;;
11829;SDS011;5972;42.134;24.718;2023-07-08T05:40:02;10.80;;;7.82;;
11829;SDS011;5972;42.134;24.718;2023-07-08T05:42:31;10.65;;;8.57;;
11829;SDS011;5972;42.134;24.718;2023-07-08T05:44:58;10.32;;;8.63;;
11829;SDS011;5972;42.134;24.718;2023-07-08T05:47:24;9.07;;;8.15;;
11829;SDS011;5972;42.134;24.718;2023-07-08T05:49:51;8.38;;;7.65;;
11829;SDS011;5972;42.134;24.718;2023-07-08T05:52:18;9.65;;;7.95;;
11829;SDS011;5972;42.134;24.718;2023-07-08T05:54:45;8.77;;;8.02;;
11829;SDS011;5972;42.134;24.718;2023-07-08T05:57:11;8.55;;;7.75;;
11829;SDS011;5972;42.134;24.718;2023-07-08T05:59:40;8.98;;;7.60;;
11829;SDS011;5972;42.134;24.718;2023-07-08T06:02:09;8.45;;;7.75;;
11829;SDS011;5972;42.134;24.718;2023-07-08T06:04:37;8.73;;;7.32;;
11829;SDS011;5972;42.134;24.718;2023-07-08T06:07:03;11.10;;;8.00;;
11829;SDS011;5972;42.134;24.718;2023-07-08T06:09:31;8.20;;;7.40;;
11829;SDS011;5972;42.134;24.718;2023-07-08T06:11:58;8.13;;;7.32;;
11829;SDS011;5972;42.134;24.718;2023-07-08T06:14:25;7.95;;;7.15;;
11829;SDS011;5972;42.134;24.718;2023-07-08T06:16:53;8.63;;;7.50;;
11829;SDS011;5972;42.134;24.718;2023-07-08T06:19:20;8.35;;;7.45;;
11829;SDS011;5972;42.134;24.718;2023-07-08T06:21:47;10.40;;;7.18;;
11829;SDS011;5972;42.134;24.718;2023-07-08T06:24:14;8.20;;;7.32;;
11829;SDS011;5972;42.134;24.718;2023-07-08T06:26:41;7.85;;;7.13;;
11829;SDS011;5972;42.134;24.718;2023-07-08T06:29:08;8.32;;;7.63;;
11829;SDS011;5972;42.134;24.718;2023-07-08T06:31:34;11.60;;;7.43;;
11829;SDS011;5972;42.134;24.718;2023-07-08T06:34:02;10.07;;;7.00;;
11829;SDS011;5972;42.134;24.718;2023-07-08T06:36:30;7.88;;;6.38;;
11829;SDS011;5972;42.134;24.718;2023-07-08T06:38:56;7.55;;;5.93;;
11829;SDS011;5972;42.134;24.718;2023-07-08T06:41:23;14.57;;;6.47;;
11829;SDS011;5972;42.134;24.718;2023-07-08T06:43:50;8.75;;;6.32;;
11829;SDS011;5972;42.134;24.718;2023-07-08T06:46:17;8.30;;;5.70;;
11829;SDS011;5972;42.134;24.718;2023-07-08T06:48:45;7.95;;;5.45;;
11829;SDS011;5972;42.134;24.718;2023-07-08T06:51:13;6.22;;;5.57;;
11829;SDS011;5972;42.134;24.718;2023-07-08T06:53:39;8.35;;;5.15;;
11829;SDS011;5972;42.134;24.718;2023-07-08T06:56:06;6.03;;;4.43;;
11829;SDS011;5972;42.134;24.718;2023-07-08T06:58:33;7.05;;;4.88;;
11829;SDS011;5972;42.134;24.718;2023-07-08T07:01:00;6.05;;;4.75;;
11829;SDS011;5972;42.134;24.718;2023-07-08T07:03:27;5.18;;;4.70;;
11829;SDS011;5972;42.134;24.718;2023-07-08T07:05:54;11.18;;;5.00;;
11829;SDS011;5972;42.134;24.718;2023-07-08T07:08:22;5.10;;;4.70;;
11829;SDS011;5972;42.134;24.718;2023-07-08T07:10:48;4.40;;;4.10;;
11829;SDS011;5972;42.134;24.718;2023-07-08T07:13:15;6.60;;;4.70;;
11829;SDS011;5972;42.134;24.718;2023-07-08T07:15:42;4.60;;;4.10;;
11829;SDS011;5972;42.134;24.718;2023-07-08T07:18:09;5.00;;;4.05;;
11829;SDS011;5972;42.134;24.718;2023-07-08T07:20:36;4.88;;;3.92;;
11829;SDS011;5972;42.134;24.718;2023-07-08T07:23:04;6.43;;;4.70;;
11829;SDS011;5972;42.134;24.718;2023-07-08T07:25:32;4.32;;;3.70;;
11829;SDS011;5972;42.134;24.718;2023-07-08T07:27:59;5.78;;;4.45;;
11829;SDS011;5972;42.134;24.718;2023-07-08T07:30:26;6.65;;;4.32;;
11829;SDS011;5972;42.134;24.718;2023-07-08T07:32:53;4.30;;;3.95;;
11829;SDS011;5972;42.134;24.718;2023-07-08T07:35:19;6.90;;;4.57;;
11829;SDS011;5972;42.134;24.718;2023-07-08T07:37:48;4.80;;;4.40;;
11829;SDS011;5972;42.134;24.718;2023-07-08T07:40:14;8.18;;;4.63;;
11829;SDS011;5972;42.134;24.718;2023-07-08T07:42:44;5.75;;;4.35;;
11829;SDS011;5972;42.134;24.718;2023-07-08T07:45:12;5.88;;;4.60;;
11829;SDS011;5972;42.134;24.718;2023-07-08T07:47:39;4.63;;;4.22;;
11829;SDS011;5972;42.134;24.718;2023-07-08T07:50:07;5.05;;;4.30;;
11829;SDS011;5972;42.134;24.718;2023-07-08T07:52:35;4.72;;;4.32;;
11829;SDS011;5972;42.134;24.718;2023-07-08T07:55:02;5.72;;;4.00;;
11829;SDS011;5972;42.134;24.718;2023-07-08T07:57:29;5.28;;;4.13;;
11829;SDS011;5972;42.134;24.718;2023-07-08T07:59:57;4.18;;;3.83;;
11829;SDS011;5972;42.134;24.718;2023-07-08T08:02:24;5.85;;;4.07;;
11829;SDS011;5972;42.134;24.718;2023-07-08T08:04:51;7.03;;;4.18;;
11829;SDS011;5972;42.134;24.718;2023-07-08T08:07:18;6.07;;;4.10;;
11829;SDS011;5972;42.134;24.718;2023-07-08T08:09:44;5.63;;;3.72;;
11829;SDS011;5972;42.134;24.718;2023-07-08T08:12:11;4.00;;;3.70;;
11829;SDS011;5972;42.134;24.718;2023-07-08T08:14:38;6.18;;;3.70;;
11829;SDS011;5972;42.134;24.718;2023-07-08T08:17:06;6.68;;;4.00;;
11829;SDS011;5972;42.134;24.718;2023-07-08T08:19:33;8.60;;;3.70;;
11829;SDS011;5972;42.134;24.718;2023-07-08T08:22:00;6.18;;;4.15;;
11829;SDS011;5972;42.134;24.718;2023-07-08T08:24:27;6.32;;;3.67;;
11829;SDS011;5972;42.134;24.718;2023-07-08T08:26:53;6.70;;;3.50;;
11829;SDS011;5972;42.134;24.718;2023-07-08T08:29:20;5.15;;;3.13;;
11829;SDS011;5972;42.134;24.718;2023-07-08T08:31:47;6.53;;;3.80;;
11829;SDS011;5972;42.134;24.718;2023-07-08T08:34:17;4.15;;;3.75;;
11829;SDS011;5972;42.134;24.718;2023-07-08T08:36:44;4.00;;;3.67;;
11829;SDS011;5972;42.134;24.718;2023-07-08T08:39:10;4.07;;;3.55;;
11829;SDS011;5972;42.134;24.718;2023-07-08T08:41:37;6.15;;;3.60;;
11829;SDS011;5972;42.134;24.718;2023-07-08T08:44:07;6.32;;;3.90;;
11829;SDS011;5972;42.134;24.718;2023-07-08T08:46:40;5.13;;;3.47;;
11829;SDS011;5972;42.134;24.718;2023-07-08T08:49:13;5.75;;;3.70;;
11829;SDS011;5972;42.134;24.718;2023-07-08T08:51:50;3.50;;;3.20;;
11829;SDS011;5972;42.134;24.718;2023-07-08T08:54:17;5.72;;;3.38;;
11829;SDS011;5972;42.134;24.718;2023-07-08T08:56:47;3.80;;;3.28;;
11829;SDS011;5972;42.134;24.718;2023-07-08T08:59:24;7.15;;;3.40;;
11829;SDS011;5972;42.134;24.718;2023-07-08T09:01:57;6.07;;;3.40;;
11829;SDS011;5972;42.134;24.718;2023-07-08T09:04:29;8.13;;;3.50;;
11829;SDS011;5972;42.134;24.718;2023-07-08T09:07:04;3.50;;;3.20;;
11829;SDS011;5972;42.134;24.718;2023-07-08T09:09:35;4.13;;;3.30;;
11829;SDS011;5972;42.134;24.718;2023-07-08T09:12:06;4.32;;;3.20;;
11829;SDS011;5972;42.134;24.718;2023-07-08T09:14:39;3.50;;;3.17;;
11829;SDS011;5972;42.134;24.718;2023-07-08T09:17:14;3.33;;;2.95;;
11829;SDS011;5972;42.134;24.718;2023-07-08T09:19:47;8.52;;;2.88;;
11829;SDS011;5972;42.134;24.718;2023-07-08T09:22:18;3.78;;;3.08;;
11829;SDS011;5972;42.134;24.718;2023-07-08T09:24:53;6.28;;;3.15;;
11829;SDS011;5972;42.134;24.718;2023-07-08T09:27:23;3.97;;;2.95;;
11829;SDS011;5972;42.134;24.718;2023-07-08T09:29:49;4.05;;;2.95;;
11829;SDS011;5972;42.134;24.718;2023-07-08T09:32:17;7.55;;;3.30;;
11829;SDS011;5972;42.134;24.718;2023-07-08T09:34:49;3.13;;;2.90;;
11829;SDS011;5972;42.134;24.718;2023-07-08T09:37:20;5.43;;;3.15;;
11829;SDS011;5972;42.134;24.718;2023-07-08T09:39:52;3.55;;;3.25;;
11829;SDS011;5972;42.134;24.718;2023-07-08T09:42:20;4.45;;;3.00;;
11829;SDS011;5972;42.134;24.718;2023-07-08T09:44:48;3.72;;;3.38;;
11829;SDS011;5972;42.134;24.718;2023-07-08T09:47:21;3.85;;;3.35;;
11829;SDS011;5972;42.134;24.718;2023-07-08T09:49:50;3.83;;;3.03;;
11829;SDS011;5972;42.134;24.718;2023-07-08T09:52:19;4.15;;;3.45;;
11829;SDS011;5972;42.134;24.718;2023-07-08T09:54:46;3.65;;;3.10;;
11829;SDS011;5972;42.134;24.718;2023-07-08T09:57:16;3.40;;;3.08;;
11829;SDS011;5972;42.134;24.718;2023-07-08T09:59:53;4.60;;;3.20;;
11829;SDS011;5972;42.134;24.718;2023-07-08T10:02:31;5.15;;;3.20;;
11829;SDS011;5972;42.134;24.718;2023-07-08T10:05:01;4.22;;;2.97;;
11829;SDS011;5972;42.134;24.718;2023-07-08T10:07:40;4.50;;;3.20;;
11829;SDS011;5972;42.134;24.718;2023-07-08T10:10:10;5.05;;;3.55;;
11829;SDS011;5972;42.134;24.718;2023-07-08T10:12:41;3.90;;;3.10;;
11829;SDS011;5972;42.134;24.718;2023-07-08T10:15:16;3.67;;;3.25;;
11829;SDS011;5972;42.134;24.718;2023-07-08T10:17:48;5.38;;;3.30;;
11829;SDS011;5972;42.134;24.718;2023-07-08T10:20:16;5.18;;;3.63;;
11829;SDS011;5972;42.134;24.718;2023-07-08T10:22:47;4.70;;;3.20;;
11829;SDS011;5972;42.134;24.718;2023-07-08T10:25:28;3.70;;;3.38;;
11829;SDS011;5972;42.134;24.718;2023-07-08T10:28:03;3.85;;;3.40;;
11829;SDS011;5972;42.134;24.718;2023-07-08T10:30:40;3.92;;;3.40;;
11829;SDS011;5972;42.134;24.718;2023-07-08T10:33:30;4.18;;;3.05;;
11829;SDS011;5972;42.134;24.718;2023-07-08T10:36:13;6.35;;;3.03;;
11829;SDS011;5972;42.134;24.718;2023-07-08T10:38:50;3.65;;;3.00;;
11829;SDS011;5972;42.134;24.718;2023-07-08T10:41:30;5.90;;;3.13;;
11829;SDS011;5972;42.134;24.718;2023-07-08T10:44:07;3.50;;;3.20;;
11829;SDS011;5972;42.134;24.718;2023-07-08T10:46:45;3.45;;;3.00;;
11829;SDS011;5972;42.134;24.718;2023-07-08T10:52:13;4.53;;;2.80;;
11829;SDS011;5972;42.134;24.718;2023-07-08T10:54:59;3.15;;;2.85;;
11829;SDS011;5972;42.134;24.718;2023-07-08T10:57:42;6.07;;;3.10;;
11829;SDS011;5972;42.134;24.718;2023-07-08T11:00:24;3.40;;;3.00;;
11829;SDS011;5972;42.134;24.718;2023-07-08T11:03:01;3.35;;;3.00;;
11829;SDS011;5972;42.134;24.718;2023-07-08T11:05:45;6.15;;;2.80;;
11829;SDS011;5972;42.134;24.718;2023-07-08T11:08:21;4.25;;;2.58;;
11829;SDS011;5972;42.134;24.718;2023-07-08T11:10:51;3.05;;;2.85;;
11829;SDS011;5972;42.134;24.718;2023-07-08T11:13:24;5.75;;;2.63;;
11829;SDS011;5972;42.134;24.718;2023-07-08T11:15:54;4.47;;;2.97;;
11829;SDS011;5972;42.134;24.718;2023-07-08T11:18:24;4.07;;;3.30;;
11829;SDS011;5972;42.134;24.718;2023-07-08T11:20:56;3.35;;;2.72;;
11829;SDS011;5972;42.134;24.718;2023-07-08T11:23:31;4.97;;;3.38;;
11829;SDS011;5972;42.134;24.718;2023-07-08T11:26:05;8.60;;;3.25;;
11829;SDS011;5972;42.134;24.718;2023-07-08T11:28:40;3.58;;;3.28;;
11829;SDS011;5972;42.134;24.718;2023-07-08T11:31:07;4.97;;;3.05;;
11829;SDS011;5972;42.134;24.718;2023-07-08T11:33:35;7.25;;;3.55;;
11829;SDS011;5972;42.134;24.718;2023-07-08T11:36:03;5.60;;;3.30;;
11829;SDS011;5972;42.134;24.718;2023-07-08T11:38:33;3.38;;;3.08;;
11829;SDS011;5972;42.134;24.718;2023-07-08T11:41:01;3.85;;;3.28;;
11829;SDS011;5972;42.134;24.718;2023-07-08T11:43:33;3.92;;;3.17;;
11829;SDS011;5972;42.134;24.718;2023-07-08T11:46:12;7.72;;;3.15;;
11829;SDS011;5972;42.134;24.718;2023-07-08T11:48:42;5.13;;;3.10;;
11829;SDS011;5972;42.134;24.718;2023-07-08T11:51:14;5.10;;;3.25;;
11829;SDS011;5972;42.134;24.718;2023-07-08T11:53:49;3.97;;;3.20;;
11829;SDS011;5972;42.134;24.718;2023-07-08T11:56:23;6.00;;;3.20;;
11829;SDS011;5972;42.134;24.718;2023-07-08T11:58:52;6.90;;;3.20;;
11829;SDS011;5972;42.134;24.718;2023-07-08T12:01:38;4.50;;;3.22;;
11829;SDS011;5972;42.134;24.718;2023-07-08T12:04:16;3.67;;;3.15;;
11829;SDS011;5972;42.134;24.718;2023-07-08T12:06:53;5.47;;;3.75;;
11829;SDS011;5972;42.134;24.718;2023-07-08T12:09:35;3.33;;;3.10;;
11829;SDS011;5972;42.134;24.718;2023-07-08T12:12:06;3.00;;;2.80;;
11829;SDS011;5972;42.134;24.718;2023-07-08T12:14:41;5.47;;;2.80;;
11829;SDS011;5972;42.134;24.718;2023-07-08T12:17:10;4.10;;;3.00;;
11829;SDS011;5972;42.134;24.718;2023-07-08T12:19:38;3.47;;;3.10;;
11829;SDS011;5972;42.134;24.718;2023-07-08T12:22:07;3.30;;;3.00;;
11829;SDS011;5972;42.134;24.718;2023-07-08T12:24:38;3.10;;;2.90;;
11829;SDS011;5972;42.134;24.718;2023-07-08T12:27:08;4.68;;;3.35;;
11829;SDS011;5972;42.134;24.718;2023-07-08T12:29:36;4.93;;;3.13;;
11829;SDS011;5972;42.134;24.718;2023-07-08T12:32:03;4.05;;;3.00;;
11829;SDS011;5972;42.134;24.718;2023-07-08T12:34:31;3.42;;;3.10;;
11829;SDS011;5972;42.134;24.718;2023-07-08T12:36:58;4.63;;;2.90;;
11829;SDS011;5972;42.134;24.718;2023-07-08T12:39:25;5.95;;;2.63;;
11829;SDS011;5972;42.134;24.718;2023-07-08T12:41:53;3.38;;;3.08;;
11829;SDS011;5972;42.134;24.718;2023-07-08T12:44:23;2.95;;;2.75;;
11829;SDS011;5972;42.134;24.718;2023-07-08T12:46:52;3.13;;;2.90;;
11829;SDS011;5972;42.134;24.718;2023-07-08T12:49:20;2.85;;;2.65;;
11829;SDS011;5972;42.134;24.718;2023-07-08T12:51:52;3.42;;;2.80;;
11829;SDS011;5972;42.134;24.718;2023-07-08T12:54:18;5.90;;;2.85;;
11829;SDS011;5972;42.134;24.718;2023-07-08T12:56:47;2.80;;;2.60;;
11829;SDS011;5972;42.134;24.718;2023-07-08T12:59:17;2.80;;;2.60;;
11829;SDS011;5972;42.134;24.718;2023-07-08T13:01:47;4.40;;;2.85;;
11829;SDS011;5972;42.134;24.718;2023-07-08T13:04:15;3.70;;;2.92;;
11829;SDS011;5972;42.134;24.718;2023-07-08T13:06:43;5.32;;;2.70;;
11829;SDS011;5972;42.134;24.718;2023-07-08T13:09:23;3.17;;;2.95;;
11829;SDS011;5972;42.134;24.718;2023-07-08T13:11:58;5.13;;;2.75;;
11829;SDS011;5972;42.134;24.718;2023-07-08T13:14:30;2.63;;;2.17;;
11829;SDS011;5972;42.134;24.718;2023-07-08T13:16:57;2.90;;;2.10;;
11829;SDS011;5972;42.134;24.718;2023-07-08T13:19:24;2.88;;;2.10;;
11829;SDS011;5972;42.134;24.718;2023-07-08T13:21:51;2.47;;;2.13;;
11829;SDS011;5972;42.134;24.718;2023-07-08T13:24:18;5.68;;;2.38;;
11829;SDS011;5972;42.134;24.718;2023-07-08T13:26:48;2.75;;;2.10;;
11829;SDS011;5972;42.134;24.718;2023-07-08T13:29:16;4.55;;;2.47;;
11829;SDS011;5972;42.134;24.718;2023-07-08T13:31:52;5.13;;;2.35;;
11829;SDS011;5972;42.134;24.718;2023-07-08T13:34:23;4.50;;;2.10;;
11829;SDS011;5972;42.134;24.718;2023-07-08T13:36:51;6.57;;;2.40;;
11829;SDS011;5972;42.134;24.718;2023-07-08T13:39:20;6.50;;;2.20;;
11829;SDS011;5972;42.134;24.718;2023-07-08T13:41:51;3.45;;;1.67;;
11829;SDS011;5972;42.134;24.718;2023-07-08T13:44:18;3.88;;;1.58;;
11829;SDS011;5972;42.134;24.718;2023-07-08T13:46:49;1.80;;;1.50;;
11829;SDS011;5972;42.134;24.718;2023-07-08T13:49:20;1.75;;;1.40;;
11829;SDS011;5972;42.134;24.718;2023-07-08T13:51:55;1.65;;;1.35;;
11829;SDS011;5972;42.134;24.718;2023-07-08T13:54:33;5.03;;;1.50;;
11829;SDS011;5972;42.134;24.718;2023-07-08T13:57:08;4.53;;;1.60;;
11829;SDS011;5972;42.134;24.718;2023-07-08T13:59:36;3.78;;;1.60;;
11829;SDS011;5972;42.134;24.718;2023-07-08T14:02:12;4.57;;;1.40;;
11829;SDS011;5972;42.134;24.718;2023-07-08T14:04:41;2.70;;;1.27;;
11829;SDS011;5972;42.134;24.718;2023-07-08T14:07:09;1.58;;;1.48;;
11829;SDS011;5972;42.134;24.718;2023-07-08T14:09:41;2.10;;;1.17;;
11829;SDS011;5972;42.134;24.718;2023-07-08T14:12:08;5.93;;;2.90;;
11829;SDS011;5972;42.134;24.718;2023-07-08T14:14:35;6.18;;;2.75;;
11829;SDS011;5972;42.134;24.718;2023-07-08T14:17:02;3.97;;;2.58;;
11829;SDS011;5972;42.134;24.718;2023-07-08T14:19:31;4.20;;;2.60;;
11829;SDS011;5972;42.134;24.718;2023-07-08T14:22:00;10.55;;;2.42;;
11829;SDS011;5972;42.134;24.718;2023-07-08T14:24:28;6.32;;;2.55;;
11829;SDS011;5972;42.134;24.718;2023-07-08T14:26:55;4.40;;;2.22;;
11829;SDS011;5972;42.134;24.718;2023-07-08T14:29:22;5.75;;;2.05;;
11829;SDS011;5972;42.134;24.718;2023-07-08T14:31:49;7.30;;;2.05;;
11829;SDS011;5972;42.134;24.718;2023-07-08T14:34:17;2.40;;;2.00;;
11829;SDS011;5972;42.134;24.718;2023-07-08T14:36:50;4.82;;;1.80;;
11829;SDS011;5972;42.134;24.718;2023-07-08T14:39:17;3.45;;;1.67;;
11829;SDS011;5972;42.134;24.718;2023-07-08T14:41:45;4.13;;;1.85;;
11829;SDS011;5972;42.134;24.718;2023-07-08T14:44:18;3.92;;;1.80;;
11829;SDS011;5972;42.134;24.718;2023-07-08T14:46:46;5.38;;;2.00;;
11829;SDS011;5972;42.134;24.718;2023-07-08T14:49:15;4.75;;;2.63;;
11829;SDS011;5972;42.134;24.718;2023-07-08T14:51:43;3.38;;;2.42;;
11829;SDS011;5972;42.134;24.718;2023-07-08T14:54:12;7.07;;;2.25;;
11829;SDS011;5972;42.134;24.718;2023-07-08T14:56:39;5.85;;;2.30;;
11829;SDS011;5972;42.134;24.718;2023-07-08T14:59:07;4.35;;;2.15;;